Time;durP1;ratioP1;P1;durP2;ratioP2;P2;SDS_P1;SDS_P2;PMS_P1;PMS_P2;Temp;Humidity;BMP_temperature;BMP_pressure;BME280_temperature;BME280_humidity;BME280_pressure;Samples;Min_cycle;Max_cycle;Signal;HPM_P1;HPM_P2
2023/05/25 00:02:09;;;;;;;1.55;1.23;;;21.30;72.10;;;;;;6273034;22;20169;-87
2023/05/25 00:04:37;;;;;;;0.37;0.37;;;21.20;72.00;;;;;;6271925;22;20489;-86
2023/05/25 00:07:07;;;;;;;0.55;0.40;;;21.20;72.00;;;;;;6269161;22;20499;-86
2023/05/25 00:09:35;;;;;;;0.70;0.50;;;21.20;72.10;;;;;;6271242;22;20177;-87
2023/05/25 00:12:04;;;;;;;0.40;0.40;;;21.20;72.20;;;;;;6270034;22;20193;-88
2023/05/25 00:14:33;;;;;;;1.20;1.08;;;21.10;72.50;;;;;;6270637;22;20245;-87
2023/05/25 00:17:02;;;;;;;0.43;0.43;;;21.10;72.60;;;;;;6270979;22;20169;-87
2023/05/25 00:19:33;;;;;;;1.58;0.35;;;21.10;72.60;;;;;;6272355;22;20165;-88
2023/05/25 00:22:02;;;;;;;0.80;0.80;;;21.10;72.80;;;;;;6271299;22;20166;-88
2023/05/25 00:24:31;;;;;;;0.30;0.30;;;21.00;72.90;;;;;;6273530;22;20162;-89
2023/05/25 00:27:00;;;;;;;0.40;0.40;;;21.00;73.10;;;;;;6271309;22;20166;-87
2023/05/25 00:29:28;;;;;;;0.30;0.30;;;21.00;73.30;;;;;;6274338;22;20166;-89
2023/05/25 00:31:57;;;;;;;0.45;0.45;;;21.00;73.30;;;;;;6275236;22;20710;-86
2023/05/25 00:34:25;;;;;;;1.05;0.40;;;21.00;73.30;;;;;;6274691;22;20525;-86
2023/05/25 00:36:55;;;;;;;1.75;0.85;;;20.90;73.30;;;;;;6274195;22;20626;-86
2023/05/25 00:39:24;;;;;;;0.52;0.52;;;20.90;73.50;;;;;;6273736;22;20669;-86
2023/05/25 00:41:52;;;;;;;1.65;1.05;;;20.90;73.50;;;;;;6275464;22;20197;-87
2023/05/25 00:44:21;;;;;;;0.95;0.82;;;20.90;73.60;;;;;;6274352;22;20219;-86
2023/05/25 00:46:50;;;;;;;0.43;0.43;;;20.80;73.60;;;;;;6275046;22;20240;-88
2023/05/25 00:49:21;;;;;;;0.35;0.35;;;20.90;73.80;;;;;;6272191;22;20196;-87
2023/05/25 00:51:52;;;;;;;0.55;0.50;;;20.90;74.00;;;;;;6273633;22;20235;-87
2023/05/25 00:54:22;;;;;;;0.20;0.20;;;20.80;74.00;;;;;;6272598;22;20240;-87
2023/05/25 00:56:53;;;;;;;1.50;0.87;;;20.80;73.90;;;;;;6274888;22;20520;-86
2023/05/25 00:59:30;;;;;;;1.60;1.13;;;20.80;74.10;;;;;;6274695;22;20161;-87
2023/05/25 01:02:03;;;;;;;1.40;1.03;;;20.80;74.40;;;;;;6273272;22;20158;-87
2023/05/25 01:04:34;;;;;;;0.63;0.63;;;20.80;74.40;;;;;;6274287;22;20169;-86
2023/05/25 01:07:05;;;;;;;1.50;0.50;;;20.70;74.50;;;;;;6292165;22;20150;-87
2023/05/25 01:09:39;;;;;;;3.22;0.68;;;20.80;74.60;;;;;;6300044;22;20142;-88
2023/05/25 01:12:10;;;;;;;0.75;0.68;;;20.70;74.70;;;;;;6296229;22;20196;-86
2023/05/25 01:14:39;;;;;;;0.40;0.40;;;20.70;74.70;;;;;;6299357;22;20168;-83
2023/05/25 01:17:09;;;;;;;0.87;0.63;;;20.70;74.90;;;;;;6298985;22;20169;-86
2023/05/25 01:19:40;;;;;;;0.70;0.70;;;20.70;75.00;;;;;;6262422;22;20509;-86
2023/05/25 01:22:15;;;;;;;5.18;1.60;;;20.60;75.10;;;;;;6276141;22;20174;-87
2023/05/25 01:24:49;;;;;;;0.30;0.30;;;20.60;75.10;;;;;;6276031;22;20493;-88
2023/05/25 01:27:23;;;;;;;0.70;0.70;;;20.60;75.10;;;;;;6275429;22;20154;-87
2023/05/25 01:29:54;;;;;;;0.53;0.53;;;20.60;75.10;;;;;;6275898;22;20164;-87
2023/05/25 01:32:23;;;;;;;0.70;0.50;;;20.50;74.90;;;;;;6275467;22;20178;-87
2023/05/25 01:34:54;;;;;;;0.27;0.27;;;20.50;74.90;;;;;;6275088;22;20170;-87
2023/05/25 01:37:25;;;;;;;1.17;0.80;;;20.50;75.00;;;;;;6273724;22;20162;-88
2023/05/25 01:39:54;;;;;;;0.67;0.67;;;20.50;75.30;;;;;;6274898;22;20514;-88
2023/05/25 01:42:24;;;;;;;0.33;0.33;;;20.50;75.30;;;;;;6272910;22;20169;-87
2023/05/25 01:44:53;;;;;;;2.10;0.40;;;20.50;75.20;;;;;;6273969;22;20154;-88
2023/05/25 01:47:27;;;;;;;0.20;0.20;;;20.40;75.20;;;;;;6272605;22;20192;-88
2023/05/25 01:50:05;;;;;;;0.37;0.30;;;20.40;75.10;;;;;;6273926;22;20501;-87
2023/05/25 01:52:38;;;;;;;0.60;0.50;;;20.30;75.10;;;;;;6274686;22;20196;-88
2023/05/25 01:55:12;;;;;;;0.40;0.40;;;20.40;75.20;;;;;;6273839;22;20233;-89
2023/05/25 01:57:44;;;;;;;1.17;0.60;;;20.30;75.20;;;;;;6274106;22;20158;-87
2023/05/25 02:00:13;;;;;;;0.40;0.40;;;20.30;75.40;;;;;;6272811;22;20168;-86
2023/05/25 02:02:45;;;;;;;0.37;0.37;;;20.30;75.50;;;;;;6274473;22;20204;-87
2023/05/25 02:05:15;;;;;;;0.63;0.37;;;20.20;75.40;;;;;;6273817;22;20169;-87
2023/05/25 02:07:45;;;;;;;0.53;0.40;;;20.20;75.50;;;;;;6272365;22;20166;-88
2023/05/25 02:10:13;;;;;;;1.13;0.57;;;20.20;75.60;;;;;;6273485;22;20490;-86
2023/05/25 02:12:41;;;;;;;0.30;0.30;;;20.20;75.70;;;;;;6273138;22;20285;-87
2023/05/25 02:15:11;;;;;;;0.53;0.53;;;20.10;75.60;;;;;;6272450;22;20162;-88
2023/05/25 02:17:39;;;;;;;0.90;0.60;;;20.10;75.60;;;;;;6271576;22;20166;-86
2023/05/25 02:20:10;;;;;;;0.87;0.53;;;20.10;75.80;;;;;;6269356;22;20211;-88
2023/05/25 02:22:38;;;;;;;0.37;0.37;;;20.10;75.70;;;;;;6274708;22;20173;-88
2023/05/25 02:25:11;;;;;;;1.03;0.63;;;20.10;75.70;;;;;;6274051;22;20495;-87
2023/05/25 02:27:39;;;;;;;0.63;0.57;;;20.00;75.70;;;;;;6273275;22;20170;-88
2023/05/25 02:30:08;;;;;;;0.93;0.53;;;20.00;75.70;;;;;;6273434;22;20185;-87
2023/05/25 02:32:37;;;;;;;0.43;0.43;;;20.00;75.90;;;;;;6274282;22;20191;-87
2023/05/25 02:35:06;;;;;;;0.33;0.33;;;20.00;76.10;;;;;;6273757;22;20196;-88
2023/05/25 02:37:35;;;;;;;0.40;0.40;;;19.90;76.20;;;;;;6273154;22;20265;-88
2023/05/25 02:40:03;;;;;;;0.90;0.60;;;19.90;76.20;;;;;;6273762;22;20168;-88
2023/05/25 02:42:33;;;;;;;0.40;0.40;;;19.80;76.10;;;;;;6272730;22;20166;-87
2023/05/25 02:45:02;;;;;;;0.40;0.40;;;19.80;76.10;;;;;;6247212;22;20173;-86
2023/05/25 02:47:31;;;;;;;1.03;0.93;;;19.80;76.20;;;;;;6271913;22;20194;-86
2023/05/25 02:49:59;;;;;;;2.63;0.93;;;19.80;76.30;;;;;;6244584;22;20174;-88
2023/05/25 02:52:29;;;;;;;0.40;0.40;;;19.70;76.30;;;;;;6247572;22;20201;-87
2023/05/25 02:54:58;;;;;;;0.43;0.43;;;19.70;76.50;;;;;;6273376;22;20169;-86
2023/05/25 02:57:27;;;;;;;1.00;0.67;;;19.70;76.50;;;;;;6293572;22;20205;-86
2023/05/25 02:59:57;;;;;;;0.83;0.50;;;19.70;76.50;;;;;;6299341;22;20154;-85
2023/05/25 03:02:25;;;;;;;0.70;0.60;;;19.70;76.70;;;;;;6279106;22;20166;-86
2023/05/25 03:04:54;;;;;;;1.23;0.40;;;19.70;76.80;;;;;;6273459;22;20177;-86
2023/05/25 03:07:24;;;;;;;2.17;0.93;;;19.70;76.90;;;;;;6272424;22;20199;-87
2023/05/25 03:09:52;;;;;;;3.90;1.30;;;19.60;77.00;;;;;;6272602;22;20249;-86
2023/05/25 03:12:21;;;;;;;1.40;1.30;;;19.60;77.00;;;;;;6272173;22;20503;-87
2023/05/25 03:14:49;;;;;;;0.33;0.33;;;19.60;77.10;;;;;;6245072;22;20220;-87
2023/05/25 03:17:19;;;;;;;0.40;0.40;;;19.60;77.30;;;;;;6272652;22;20233;-88
2023/05/25 03:19:48;;;;;;;0.93;0.60;;;19.60;77.50;;;;;;6273187;22;20166;-87
2023/05/25 03:22:16;;;;;;;1.03;0.80;;;19.60;77.40;;;;;;6273894;22;20165;-88
2023/05/25 03:24:45;;;;;;;1.40;0.93;;;19.60;77.50;;;;;;6273292;22;20174;-88
2023/05/25 03:27:14;;;;;;;1.90;0.97;;;19.60;77.70;;;;;;6272277;22;20169;-88
2023/05/25 03:29:43;;;;;;;3.07;1.27;;;19.60;77.60;;;;;;6273364;22;20611;-88
2023/05/25 03:32:11;;;;;;;6.13;2.10;;;19.60;77.90;;;;;;6271895;22;20245;-86
2023/05/25 03:34:41;;;;;;;2.90;1.30;;;19.60;78.30;;;;;;6271617;22;20536;-87
2023/05/25 03:37:09;;;;;;;1.90;1.10;;;19.70;78.70;;;;;;6271096;22;20197;-86
2023/05/25 03:39:38;;;;;;;2.47;1.03;;;19.70;78.70;;;;;;6272630;22;20162;-89
2023/05/25 03:42:07;;;;;;;1.93;1.20;;;19.70;79.00;;;;;;6272123;22;20169;-87
2023/05/25 03:44:36;;;;;;;1.27;1.07;;;19.70;79.40;;;;;;6271749;22;20165;-87
2023/05/25 03:47:07;;;;;;;3.53;1.20;;;19.70;79.10;;;;;;6272167;22;20622;-86
2023/05/25 03:49:35;;;;;;;4.70;0.93;;;19.70;79.40;;;;;;6271517;22;20189;-87
2023/05/25 03:52:06;;;;;;;1.80;1.20;;;19.70;79.60;;;;;;6272316;22;20174;-87
2023/05/25 03:54:34;;;;;;;3.10;1.20;;;19.80;79.70;;;;;;6271142;22;20189;-85
2023/05/25 03:57:03;;;;;;;2.77;1.40;;;19.80;79.50;;;;;;6271865;22;20196;-88
2023/05/25 03:59:32;;;;;;;3.13;1.37;;;19.80;80.00;;;;;;6270789;22;20170;-88
2023/05/25 04:02:00;;;;;;;1.93;1.30;;;19.90;80.20;;;;;;6269263;22;20178;-86
2023/05/25 04:04:29;;;;;;;3.53;1.47;;;19.90;79.90;;;;;;6273547;22;20189;-87
2023/05/25 04:06:57;;;;;;;3.27;1.30;;;19.90;80.20;;;;;;6273941;22;20248;-86
2023/05/25 04:09:27;;;;;;;4.37;1.30;;;19.90;80.00;;;;;;6273545;22;20608;-85
2023/05/25 04:11:56;;;;;;;2.87;1.37;;;20.00;80.30;;;;;;6274690;22;20615;-86
2023/05/25 04:14:24;;;;;;;2.87;1.57;;;20.00;80.30;;;;;;6275142;22;20185;-85
2023/05/25 04:17:02;;;;;;;3.03;1.17;;;20.00;80.20;;;;;;6271098;22;20162;-84
2023/05/25 04:19:31;;;;;;;2.53;1.30;;;20.10;79.90;;;;;;6271651;22;20243;-85
2023/05/25 04:21:59;;;;;;;1.93;1.10;;;20.10;79.80;;;;;;6272707;22;20501;-88
2023/05/25 04:24:31;;;;;;;5.53;1.87;;;20.10;79.70;;;;;;6275715;22;20231;-86
2023/05/25 04:27:01;;;;;;;4.57;1.13;;;20.20;79.90;;;;;;6273292;22;20515;-87
2023/05/25 04:29:30;;;;;;;5.00;1.20;;;20.20;80.30;;;;;;6274321;22;20208;-86
2023/05/25 04:32:02;;;;;;;2.73;1.37;;;20.30;80.00;;;;;;6273736;22;20170;-86
2023/05/25 04:34:32;;;;;;;2.20;1.23;;;20.40;80.00;;;;;;6275162;22;20185;-87
2023/05/25 04:37:03;;;;;;;3.40;1.50;;;20.40;79.90;;;;;;6272392;22;20170;-85
2023/05/25 04:39:34;;;;;;;5.10;1.60;;;20.50;80.10;;;;;;6274935;22;20233;-87
2023/05/25 04:42:04;;;;;;;3.00;1.47;;;20.50;80.00;;;;;;6273338;22;20499;-86
2023/05/25 04:44:33;;;;;;;3.47;1.30;;;20.60;79.90;;;;;;6273254;22;20169;-85
2023/05/25 04:47:02;;;;;;;2.00;1.37;;;20.70;80.00;;;;;;6272323;22;20170;-86
2023/05/25 04:49:30;;;;;;;2.60;1.60;;;20.70;80.10;;;;;;6272699;22;20232;-87
2023/05/25 04:51:59;;;;;;;3.17;1.80;;;20.80;80.00;;;;;;6272055;22;20162;-88
2023/05/25 04:54:28;;;;;;;3.43;1.60;;;20.80;79.90;;;;;;6271895;22;20243;-87
2023/05/25 04:56:58;;;;;;;1.58;1.17;;;20.90;79.70;;;;;;6272268;22;20170;-87
2023/05/25 04:59:27;;;;;;;3.13;1.27;;;20.90;79.70;;;;;;6272733;22;20158;-86
2023/05/25 05:01:55;;;;;;;4.85;1.02;;;21.00;79.50;;;;;;6271101;22;20166;-89
2023/05/25 05:07:21;;;;;;;1.45;1.05;;;21.10;79.50;;;;;;6300985;22;20227;-86
2023/05/25 05:09:50;;;;;;;2.83;1.60;;;21.20;79.40;;;;;;6302945;22;20175;-86
2023/05/25 05:12:20;;;;;;;2.08;1.30;;;21.30;79.50;;;;;;6302962;22;20165;-86
2023/05/25 05:14:48;;;;;;;2.25;1.42;;;21.30;79.80;;;;;;6302385;22;20654;-85
2023/05/25 05:17:17;;;;;;;2.83;1.67;;;21.40;79.60;;;;;;6302345;22;20249;-86
2023/05/25 05:19:46;;;;;;;2.90;1.23;;;21.50;79.50;;;;;;6305074;22;20203;-86
2023/05/25 05:22:15;;;;;;;2.90;1.60;;;21.60;79.50;;;;;;6304402;22;20207;-86
2023/05/25 05:24:43;;;;;;;2.28;1.27;;;21.70;79.60;;;;;;6303310;22;20626;-87
2023/05/25 05:27:14;;;;;;;2.42;1.33;;;21.80;79.40;;;;;;6298802;22;20247;-85
2023/05/25 05:29:43;;;;;;;2.40;1.27;;;21.80;79.10;;;;;;6302572;22;20235;-85
2023/05/25 05:32:12;;;;;;;2.42;1.40;;;22.00;79.90;;;;;;6304025;22;20183;-85
2023/05/25 05:34:40;;;;;;;2.20;1.33;;;22.00;78.70;;;;;;6305390;22;20505;-86
2023/05/25 05:37:09;;;;;;;1.55;1.17;;;22.10;78.70;;;;;;6304835;22;20161;-86
2023/05/25 05:39:37;;;;;;;2.53;1.60;;;22.20;78.50;;;;;;6303419;22;20256;-85
2023/05/25 05:42:06;;;;;;;2.03;1.30;;;22.20;78.20;;;;;;6305057;22;20168;-85
2023/05/25 05:44:35;;;;;;;5.70;1.67;;;22.30;78.10;;;;;;6303547;22;20171;-85
2023/05/25 05:47:06;;;;;;;3.13;1.65;;;22.40;77.90;;;;;;6303455;22;20862;-87
2023/05/25 05:49:36;;;;;;;4.05;1.40;;;22.50;77.80;;;;;;6301851;22;20240;-86
2023/05/25 05:52:05;;;;;;;4.40;1.92;;;22.60;77.90;;;;;;6301874;22;20196;-85
2023/05/25 05:54:34;;;;;;;2.85;1.45;;;22.70;77.60;;;;;;6304479;22;20189;-85
2023/05/25 05:57:02;;;;;;;2.15;1.00;;;22.70;77.40;;;;;;6300772;22;20181;-85
2023/05/25 05:59:31;;;;;;;2.10;1.42;;;22.80;77.20;;;;;;6306070;22;20166;-85
2023/05/25 06:01:59;;;;;;;2.35;1.05;;;22.90;77.90;;;;;;6301414;22;20561;-86
2023/05/25 06:04:29;;;;;;;2.92;1.63;;;23.00;76.90;;;;;;6305714;22;20684;-87
2023/05/25 06:06:57;;;;;;;4.13;1.25;;;23.20;76.70;;;;;;6303879;22;20239;-85
2023/05/25 06:09:26;;;;;;;3.20;1.38;;;23.20;76.60;;;;;;6303677;22;20615;-88
2023/05/25 06:11:54;;;;;;;1.58;1.30;;;23.30;76.30;;;;;;6301495;22;20204;-88
2023/05/25 06:14:23;;;;;;;2.45;1.77;;;23.40;76.10;;;;;;6304107;22;20192;-87
2023/05/25 06:16:54;;;;;;;2.13;1.42;;;23.60;75.90;;;;;;6303546;22;20168;-87
2023/05/25 06:19:23;;;;;;;2.95;1.58;;;23.70;75.50;;;;;;6305106;22;20598;-87
2023/05/25 06:21:52;;;;;;;2.13;1.40;;;23.80;74.90;;;;;;6302883;22;20165;-87
2023/05/25 06:24:21;;;;;;;2.05;1.25;;;23.90;74.60;;;;;;6302864;22;20169;-87
2023/05/25 06:26:49;;;;;;;2.85;1.33;;;24.00;74.30;;;;;;6303718;22;20729;-88
2023/05/25 06:29:18;;;;;;;2.20;1.35;;;24.10;74.00;;;;;;6304505;22;20172;-86
2023/05/25 06:31:49;;;;;;;3.17;1.50;;;24.20;73.60;;;;;;6305282;22;20615;-86
2023/05/25 06:34:17;;;;;;;2.78;1.42;;;24.20;72.30;;;;;;6302649;22;20161;-87
2023/05/25 06:36:46;;;;;;;2.50;1.00;;;24.30;71.90;;;;;;6303487;22;20658;-86
2023/05/25 06:39:16;;;;;;;1.58;1.15;;;24.30;71.90;;;;;;6314912;22;20168;-86
2023/05/25 06:41:45;;;;;;;3.10;1.27;;;24.30;71.50;;;;;;6325532;22;20165;-86
2023/05/25 06:44:13;;;;;;;2.05;1.20;;;24.40;71.70;;;;;;6318638;22;20168;-86
2023/05/25 06:46:42;;;;;;;4.72;1.75;;;24.50;71.40;;;;;;6306079;22;20173;-86
2023/05/25 06:49:10;;;;;;;2.90;1.45;;;24.60;70.80;;;;;;6305088;22;20168;-86
2023/05/25 06:51:39;;;;;;;1.00;0.90;;;24.70;70.80;;;;;;6304149;22;20256;-86
2023/05/25 06:54:08;;;;;;;1.70;1.30;;;24.70;70.70;;;;;;6305164;22;20170;-86
2023/05/25 06:56:38;;;;;;;12.95;1.50;;;24.90;70.40;;;;;;6304853;22;20280;-86
2023/05/25 06:59:07;;;;;;;2.58;1.13;;;24.90;69.80;;;;;;6304206;22;20602;-87
2023/05/25 07:01:36;;;;;;;2.78;1.50;;;25.00;69.70;;;;;;6302910;22;20165;-86
2023/05/25 07:04:04;;;;;;;2.42;1.15;;;25.10;69.20;;;;;;6304611;22;20255;-86
2023/05/25 07:06:33;;;;;;;1.70;1.23;;;25.20;68.40;;;;;;6303483;22;20223;-85
2023/05/25 07:09:01;;;;;;;1.65;1.10;;;25.20;67.80;;;;;;6304457;22;20170;-87
2023/05/25 07:11:30;;;;;;;4.03;0.90;;;25.30;67.90;;;;;;6305782;22;20165;-86
2023/05/25 07:13:59;;;;;;;2.20;1.20;;;25.40;67.40;;;;;;6304252;22;20169;-86
2023/05/25 07:16:28;;;;;;;3.85;1.50;;;25.40;67.10;;;;;;6303604;22;20188;-87
2023/05/25 07:18:56;;;;;;;3.15;1.50;;;25.40;66.40;;;;;;6302738;22;20180;-86
2023/05/25 07:21:27;;;;;;;2.78;1.42;;;25.50;66.40;;;;;;6296657;22;20154;-87
2023/05/25 07:23:56;;;;;;;2.30;1.20;;;25.50;66.60;;;;;;6301138;22;20165;-86
2023/05/25 07:26:24;;;;;;;2.88;1.40;;;25.50;66.20;;;;;;6304272;22;20223;-86
2023/05/25 07:28:53;;;;;;;2.47;1.50;;;25.50;66.00;;;;;;6302518;22;20165;-86
2023/05/25 07:31:22;;;;;;;3.15;1.63;;;25.50;65.40;;;;;;6302466;22;20161;-85
2023/05/25 07:33:52;;;;;;;2.33;1.30;;;25.50;65.60;;;;;;6303877;22;20234;-84
2023/05/25 07:36:20;;;;;;;2.15;1.40;;;25.50;65.90;;;;;;6304171;22;20189;-89
2023/05/25 07:38:49;;;;;;;3.80;1.58;;;25.60;65.90;;;;;;6302640;22;20165;-87
2023/05/25 07:41:17;;;;;;;3.85;1.63;;;25.60;65.80;;;;;;6302009;22;20173;-86
2023/05/25 07:43:45;;;;;;;3.47;1.50;;;25.60;65.50;;;;;;6302283;22;20176;-85
2023/05/25 07:46:15;;;;;;;4.05;1.42;;;25.60;65.50;;;;;;6299932;22;20169;-88
2023/05/25 07:48:45;;;;;;;4.47;1.30;;;25.60;65.20;;;;;;6304498;22;20169;-87
2023/05/25 07:51:14;;;;;;;2.97;1.38;;;25.60;65.10;;;;;;6302581;22;20165;-88
2023/05/25 07:53:42;;;;;;;2.67;1.25;;;25.70;65.10;;;;;;6304731;22;20164;-86
2023/05/25 07:56:11;;;;;;;4.75;1.73;;;25.80;65.20;;;;;;6302928;22;20218;-85
2023/05/25 07:58:39;;;;;;;3.88;1.77;;;25.80;65.20;;;;;;6304876;22;20244;-87
2023/05/25 08:01:08;;;;;;;2.83;1.30;;;25.90;65.00;;;;;;6301124;22;20208;-86
2023/05/25 08:03:36;;;;;;;3.58;1.48;;;26.00;65.20;;;;;;6305428;22;20882;-88
2023/05/25 08:06:18;;;;;;;5.20;1.92;;;26.00;65.00;;;;;;6301481;22;20266;-85
2023/05/25 08:08:46;;;;;;;5.38;1.35;;;26.10;65.10;;;;;;6300432;22;20508;-85
2023/05/25 08:11:16;;;;;;;3.28;1.63;;;26.20;64.70;;;;;;6301999;22;20171;-87
2023/05/25 08:13:44;;;;;;;4.20;1.77;;;26.20;64.80;;;;;;6303146;22;20169;-87
2023/05/25 08:16:13;;;;;;;2.13;1.40;;;26.20;64.50;;;;;;6300319;22;20197;-88
2023/05/25 08:18:45;;;;;;;4.18;1.52;;;26.30;64.70;;;;;;6301703;22;20158;-87
2023/05/25 08:21:14;;;;;;;10.75;2.10;;;26.30;63.80;;;;;;6299758;22;20207;-85
2023/05/25 08:23:44;;;;;;;2.67;1.52;;;26.30;64.80;;;;;;6300925;22;20177;-84
2023/05/25 08:26:19;;;;;;;2.13;1.45;;;26.30;63.50;;;;;;6300789;22;20187;-86
2023/05/25 08:28:56;;;;;;;3.10;1.42;;;26.40;63.80;;;;;;6303863;22;20173;-89
2023/05/25 08:31:25;;;;;;;2.53;1.70;;;26.40;64.20;;;;;;6303275;22;20192;-89
2023/05/25 08:34:14;;;;;;;8.43;1.98;;;26.40;64.10;;;;;;6302110;22;20165;-87
2023/05/25 08:36:50;;;;;;;5.15;1.50;;;26.40;63.50;;;;;;6301440;22;20203;-84
2023/05/25 08:42:24;;;;;;;4.13;1.88;;;26.30;61.90;;;;;;6299278;22;20832;-84
2023/05/25 08:44:53;;;;;;;1.88;1.10;;;26.40;62.30;;;;;;6302392;22;20169;-84
2023/05/25 08:47:23;;;;;;;3.63;1.92;;;26.30;62.10;;;;;;6299309;22;20169;-85
2023/05/25 08:49:53;;;;;;;4.90;1.40;;;26.30;62.80;;;;;;6303972;22;20169;-86
2023/05/25 08:52:23;;;;;;;5.38;1.70;;;26.40;62.30;;;;;;6303330;22;20158;-85
2023/05/25 08:54:57;;;;;;;3.63;1.77;;;26.40;61.90;;;;;;6306071;22;20203;-85
2023/05/25 08:57:34;;;;;;;2.40;1.10;;;26.50;62.40;;;;;;6300712;22;20188;-86
2023/05/25 09:00:09;;;;;;;1.77;1.02;;;26.60;62.50;;;;;;6301713;22;20153;-84
2023/05/25 09:02:44;;;;;;;2.72;1.30;;;26.60;62.20;;;;;;6301646;22;20268;-84
2023/05/25 09:05:14;;;;;;;7.10;1.70;;;26.70;61.60;;;;;;6301940;22;20188;-86
2023/05/25 09:07:43;;;;;;;5.45;1.63;;;26.80;61.50;;;;;;6305037;22;20172;-87
2023/05/25 09:10:15;;;;;;;1.98;1.45;;;26.80;61.60;;;;;;6301847;22;20331;-88
2023/05/25 09:12:45;;;;;;;2.58;1.63;;;26.80;61.20;;;;;;6304496;22;20192;-86
2023/05/25 09:15:14;;;;;;;4.80;1.90;;;26.90;61.30;;;;;;6305278;22;20153;-88
2023/05/25 09:17:42;;;;;;;2.92;1.83;;;26.90;61.50;;;;;;6305955;22;20242;-85
2023/05/25 09:20:12;;;;;;;3.50;1.80;;;27.00;61.30;;;;;;6305303;22;20161;-89
2023/05/25 09:22:41;;;;;;;3.30;1.63;;;26.90;59.10;;;;;;6302190;22;20179;-85
2023/05/25 09:25:11;;;;;;;4.35;1.67;;;27.00;59.60;;;;;;6302833;22;20162;-86
2023/05/25 09:27:42;;;;;;;6.20;1.80;;;27.00;59.90;;;;;;6303938;22;20252;-85
2023/05/25 09:30:11;;;;;;;5.25;1.73;;;27.10;59.70;;;;;;6303156;22;20193;-86
2023/05/25 09:32:40;;;;;;;4.95;1.52;;;27.10;59.80;;;;;;6300960;22;20195;-86
2023/05/25 09:35:10;;;;;;;4.53;1.70;;;27.10;59.10;;;;;;6303380;22;20192;-87
2023/05/25 09:37:40;;;;;;;2.78;1.83;;;27.10;58.30;;;;;;6304466;22;20657;-83
2023/05/25 09:40:14;;;;;;;3.17;1.73;;;27.20;58.90;;;;;;6301946;22;20176;-90
2023/05/25 09:43:14;;;;;;;3.22;1.92;;;27.30;59.30;;;;;;6292312;22;20549;-88
2023/05/25 09:46:00;;;;;;;2.28;1.65;;;27.30;59.40;;;;;;6302166;22;20165;-87
2023/05/25 09:48:29;;;;;;;1.48;1.10;;;27.40;59.50;;;;;;6304140;22;20165;-86
2023/05/25 09:50:57;;;;;;;2.10;1.65;;;27.50;59.30;;;;;;6303469;22;20238;-87
2023/05/25 09:53:27;;;;;;;2.92;1.50;;;27.50;59.00;;;;;;6303583;22;20161;-87
2023/05/25 09:55:56;;;;;;;2.45;1.50;;;27.60;58.60;;;;;;6303399;22;20165;-86
2023/05/25 09:58:27;;;;;;;2.92;1.80;;;27.70;58.20;;;;;;6303683;22;20276;-86
2023/05/25 10:00:55;;;;;;;3.08;1.73;;;27.80;58.00;;;;;;6302575;22;20240;-88
2023/05/25 10:03:24;;;;;;;2.15;1.35;;;27.90;57.90;;;;;;6305301;22;20169;-87
2023/05/25 10:05:55;;;;;;;3.30;1.80;;;28.00;57.70;;;;;;6304851;22;20264;-87
2023/05/25 10:08:25;;;;;;;2.30;1.33;;;28.10;57.50;;;;;;6304724;22;20892;-86
2023/05/25 10:10:56;;;;;;;1.90;1.35;;;28.20;56.60;;;;;;6304551;22;20157;-88
2023/05/25 10:13:30;;;;;;;3.22;1.92;;;28.30;56.60;;;;;;6304670;22;20248;-85
2023/05/25 10:15:59;;;;;;;4.20;1.42;;;28.30;54.60;;;;;;6305554;22;20157;-86
2023/05/25 10:18:32;;;;;;;1.90;1.27;;;28.30;55.10;;;;;;6318826;22;20272;-87
2023/05/25 10:21:03;;;;;;;2.15;1.10;;;28.30;55.10;;;;;;6329460;22;20156;-87
2023/05/25 10:23:40;;;;;;;2.58;1.65;;;28.30;54.80;;;;;;6332815;22;20152;-89
2023/05/25 10:26:09;;;;;;;4.50;1.42;;;28.30;55.00;;;;;;6331459;22;20161;-89
2023/05/25 10:28:44;;;;;;;7.03;1.48;;;28.30;55.20;;;;;;6306589;22;20316;-86
2023/05/25 10:31:13;;;;;;;3.70;1.58;;;28.30;55.00;;;;;;6327791;22;20153;-86
2023/05/25 10:33:43;;;;;;;2.55;1.30;;;28.30;55.20;;;;;;6322857;22;20170;-87
2023/05/25 10:36:20;;;;;;;1.23;1.13;;;28.40;54.90;;;;;;6314031;22;20415;-89
2023/05/25 10:38:51;;;;;;;9.40;2.13;;;28.50;55.00;;;;;;6310529;22;20192;-88
2023/05/25 10:41:20;;;;;;;2.45;1.70;;;28.50;55.00;;;;;;6306553;22;20157;-87
2023/05/25 10:43:52;;;;;;;1.80;1.40;;;28.60;55.20;;;;;;6309586;22;20618;-88
2023/05/25 10:46:21;;;;;;;4.88;1.98;;;28.70;55.90;;;;;;6309189;22;20154;-87
2023/05/25 10:49:00;;;;;;;2.63;1.88;;;28.80;54.80;;;;;;6305773;22;20169;-94
2023/05/25 10:51:40;;;;;;;1.83;1.33;;;28.80;54.40;;;;;;6305799;22;20155;-90
2023/05/25 10:54:08;;;;;;;2.92;1.40;;;28.90;53.90;;;;;;6305868;22;20168;-91
2023/05/25 10:56:38;;;;;;;2.95;1.50;;;28.90;53.50;;;;;;6304857;22;20161;-89
2023/05/25 10:59:13;;;;;;;3.22;1.75;;;29.00;53.30;;;;;;6305092;22;20567;-88
2023/05/25 11:01:51;;;;;;;2.58;1.20;;;29.10;53.40;;;;;;6304140;22;20240;-87
2023/05/25 11:04:19;;;;;;;2.35;1.25;;;29.20;53.60;;;;;;6301841;22;20165;-88
2023/05/25 11:07:15;;;;;;;2.05;1.30;;;29.20;53.90;;;;;;6274660;22;20271;-88
2023/05/25 11:09:44;;;;;;;3.72;1.80;;;29.30;54.00;;;;;;6303977;22;20161;-87
2023/05/25 11:12:21;;;;;;;3.33;1.52;;;29.40;53.60;;;;;;6303263;22;20196;-89
2023/05/25 11:15:14;;;;;;;2.03;1.30;;;29.40;54.00;;;;;;6304521;22;20520;-88
2023/05/25 11:17:57;;;;;;;3.05;1.42;;;29.50;53.40;;;;;;6291407;22;20189;-89
2023/05/25 11:20:28;;;;;;;2.75;1.33;;;29.50;52.90;;;;;;6303379;22;20491;-89
2023/05/25 11:22:58;;;;;;;2.65;1.27;;;29.40;52.60;;;;;;6303355;22;20165;-87
2023/05/25 11:25:38;;;;;;;1.92;1.38;;;29.30;51.10;;;;;;6305890;22;20236;-88
2023/05/25 11:28:07;;;;;;;3.38;0.90;;;29.40;51.80;;;;;;6303589;22;20168;-88
2023/05/25 11:30:42;;;;;;;3.72;1.35;;;29.30;52.00;;;;;;6302251;22;20192;-89
2023/05/25 11:33:10;;;;;;;1.33;1.05;;;29.20;51.50;;;;;;6303745;22;20160;-88
2023/05/25 11:35:40;;;;;;;2.15;1.60;;;29.10;51.00;;;;;;6302406;22;20173;-89
2023/05/25 11:38:11;;;;;;;2.97;1.48;;;29.10;51.60;;;;;;6303192;22;20214;-89
2023/05/25 11:40:40;;;;;;;3.05;1.35;;;29.10;52.10;;;;;;6303926;22;20157;-85
2023/05/25 11:43:09;;;;;;;4.03;1.50;;;28.90;51.70;;;;;;6303879;22;20169;-88
2023/05/25 11:45:38;;;;;;;2.88;1.77;;;28.70;51.80;;;;;;6303479;22;20176;-85
2023/05/25 11:48:14;;;;;;;3.88;1.27;;;28.60;51.40;;;;;;6303633;22;20195;-89
2023/05/25 11:50:43;;;;;;;2.05;1.13;;;28.40;50.90;;;;;;6304702;22;20218;-88
2023/05/25 11:53:12;;;;;;;6.35;1.90;;;28.30;51.40;;;;;;6304066;22;20248;-86
2023/05/25 11:55:42;;;;;;;2.28;1.30;;;28.30;52.20;;;;;;6302414;22;20688;-86
2023/05/25 11:58:11;;;;;;;1.42;1.10;;;28.10;52.90;;;;;;6276625;22;20195;-89
2023/05/25 12:00:39;;;;;;;1.75;1.17;;;28.00;53.40;;;;;;6301874;22;20191;-87
2023/05/25 12:03:09;;;;;;;3.45;1.65;;;28.00;53.80;;;;;;6302347;22;20173;-85
2023/05/25 12:05:38;;;;;;;1.88;1.45;;;27.90;54.60;;;;;;6304162;22;20193;-88
2023/05/25 12:08:07;;;;;;;2.00;1.20;;;27.80;54.80;;;;;;6299263;22;20183;-88
2023/05/25 12:10:50;;;;;;;3.60;1.48;;;27.70;54.50;;;;;;6305529;22;20490;-90
2023/05/25 12:13:18;;;;;;;2.15;1.35;;;27.70;54.80;;;;;;6303585;22;20157;-88
2023/05/25 12:15:47;;;;;;;15.82;1.75;;;27.70;55.00;;;;;;6303289;22;20634;-86
2023/05/25 12:18:18;;;;;;;2.45;1.30;;;27.70;55.40;;;;;;6274224;22;20189;-88
2023/05/25 12:20:47;;;;;;;4.10;1.10;;;27.60;55.40;;;;;;6277637;22;20243;-87
2023/05/25 12:23:18;;;;;;;2.58;1.33;;;27.60;55.20;;;;;;6304154;22;20225;-88
2023/05/25 12:25:57;;;;;;;3.05;1.42;;;27.60;54.50;;;;;;6305384;22;20172;-86
2023/05/25 12:28:26;;;;;;;5.53;1.50;;;27.60;54.10;;;;;;6277899;22;20618;-88
2023/05/25 12:30:54;;;;;;;1.85;1.20;;;27.50;53.60;;;;;;6310160;22;20165;-87
2023/05/25 12:33:24;;;;;;;2.30;0.90;;;27.60;54.30;;;;;;6305850;22;20248;-87
2023/05/25 12:35:54;;;;;;;1.70;1.15;;;27.60;55.40;;;;;;6305856;22;20167;-88
2023/05/25 12:38:22;;;;;;;1.65;1.35;;;27.50;57.70;;;;;;6305795;22;20199;-88
2023/05/25 12:41:05;;;;;;;3.22;1.67;;;27.50;58.70;;;;;;6306846;22;20176;-89
2023/05/25 12:43:39;;;;;;;2.17;1.38;;;27.40;58.90;;;;;;6307059;22;20206;-89
2023/05/25 12:46:07;;;;;;;4.68;1.70;;;27.30;59.10;;;;;;6305285;22;20172;-89
2023/05/25 12:48:37;;;;;;;5.00;1.70;;;27.20;59.20;;;;;;6305550;22;20173;-87
2023/05/25 12:51:08;;;;;;;1.48;1.10;;;27.10;59.70;;;;;;6279522;22;20172;-89
2023/05/25 12:53:47;;;;;;;1.83;1.10;;;27.10;58.80;;;;;;6306181;22;20154;-89
2023/05/25 12:56:16;;;;;;;2.10;1.20;;;27.00;58.00;;;;;;6306517;22;20153;-88
2023/05/25 12:58:45;;;;;;;12.60;1.00;;;26.90;57.70;;;;;;6304313;22;20196;-90
2023/05/25 13:01:14;;;;;;;35.58;3.25;;;26.90;57.60;;;;;;6305941;22;20201;-91
2023/05/25 13:03:44;;;;;;;8.50;0.80;;;26.90;57.40;;;;;;6307789;22;20201;-88
2023/05/25 13:06:13;;;;;;;2.58;1.05;;;26.80;57.30;;;;;;6278015;22;20642;-90
2023/05/25 13:08:41;;;;;;;1.08;0.73;;;26.80;57.40;;;;;;6303310;22;20284;-86